createdAt,value
2018-02-15T00:00:05.172Z,22.1
2018-02-15T00:02:05.453Z,22.1
2018-02-15T00:04:10.213Z,22.1
2018-02-15T00:06:04.932Z,22.1
2018-02-15T00:08:07.278Z,22.1
2018-02-15T00:10:05.050Z,22.1
2018-02-15T00:12:04.794Z,22.1
2018-02-15T00:14:05.584Z,22.1
2018-02-15T00:16:05.399Z,22
2018-02-15T00:18:05.449Z,22.1
2018-02-15T00:20:05.200Z,22
2018-02-15T00:22:07.520Z,22.1
2018-02-15T00:24:10.417Z,22.1
2018-02-15T00:26:05.394Z,22.1
2018-02-15T00:28:07.613Z,22.1
2018-02-15T00:30:05.417Z,22
2018-02-15T00:32:04.727Z,22.1
2018-02-15T00:34:05.473Z,22
2018-02-15T00:36:07.343Z,22
2018-02-15T00:38:05.108Z,22
2018-02-15T00:40:04.940Z,22
2018-02-15T00:42:04.663Z,22
2018-02-15T00:44:05.501Z,22
2018-02-15T00:46:07.785Z,22
2018-02-15T00:48:05.544Z,22
2018-02-15T00:50:05.318Z,22
2018-02-15T00:52:05.541Z,22
2018-02-15T00:54:05.314Z,22
2018-02-15T00:56:05.108Z,22
2018-02-15T00:58:07.426Z,22
2018-02-15T01:00:07.712Z,22
2018-02-15T01:02:08.060Z,22
2018-02-15T01:04:04.833Z,22
2018-02-15T01:06:05.581Z,22
2018-02-15T01:08:05.389Z,22
2018-02-15T01:10:05.140Z,22
2018-02-15T01:12:04.897Z,22
2018-02-15T01:14:04.722Z,22
2018-02-15T01:16:05.555Z,22
2018-02-15T01:18:05.023Z,22
2018-02-15T01:20:04.770Z,22
2018-02-15T01:22:08.156Z,22
2018-02-15T01:24:04.900Z,22
2018-02-15T01:26:07.194Z,22
2018-02-15T01:28:04.949Z,22
2018-02-15T01:30:04.735Z,22
2018-02-15T01:32:05.314Z,22
2018-02-15T01:34:04.674Z,22
2018-02-15T01:36:05.471Z,21.9
2018-02-15T01:38:07.831Z,22
2018-02-15T01:40:05.622Z,22
2018-02-15T01:42:05.346Z,22
2018-02-15T01:44:05.082Z,22
2018-02-15T01:46:04.803Z,22
2018-02-15T01:48:05.668Z,22
2018-02-15T01:50:08.099Z,22
2018-02-15T01:52:04.817Z,22
2018-02-15T01:54:07.648Z,21.9
2018-02-15T01:56:05.448Z,22
2018-02-15T01:58:05.173Z,21.9
2018-02-15T02:00:04.904Z,22
2018-02-15T02:02:04.682Z,21.9
2018-02-15T02:04:05.407Z,22
2018-02-15T02:06:04.939Z,21.9
2018-02-15T02:08:05.221Z,21.9
2018-02-15T02:10:07.629Z,21.9
2018-02-15T02:12:05.488Z,21.9
2018-02-15T02:14:05.291Z,21.9
2018-02-15T02:16:08.169Z,21.9
2018-02-15T02:18:05.122Z,21.9
2018-02-15T02:20:05.410Z,21.9
2018-02-15T02:22:05.133Z,21.9
2018-02-15T02:24:04.873Z,21.9
2018-02-15T02:26:10.225Z,21.9
2018-02-15T02:28:08.072Z,21.9
2018-02-15T02:30:10.494Z,21.9
2018-02-15T02:32:05.367Z,21.9
2018-02-15T02:34:05.360Z,21.9
2018-02-15T02:36:07.699Z,21.9
2018-02-15T02:38:08.061Z,21.9
2018-02-15T02:40:04.842Z,21.9
2018-02-15T02:42:04.710Z,21.9
2018-02-15T02:44:05.105Z,21.9
2018-02-15T02:46:04.889Z,21.9
2018-02-15T02:48:04.601Z,21.9
2018-02-15T02:50:05.390Z,21.9
2018-02-15T02:52:05.247Z,21.9
2018-02-15T02:54:07.576Z,21.9
2018-02-15T02:56:05.135Z,21.9
2018-02-15T02:58:09.933Z,21.9
2018-02-15T03:00:12.817Z,21.9
2018-02-15T03:02:05.572Z,21.9
2018-02-15T03:04:05.411Z,21.9
2018-02-15T03:06:05.236Z,21.9
2018-02-15T03:08:05.062Z,21.9
2018-02-15T03:10:04.930Z,21.9
2018-02-15T03:12:07.216Z,21.9
2018-02-15T03:14:07.511Z,21.9
2018-02-15T03:16:07.827Z,21.9
2018-02-15T03:18:05.324Z,21.9
2018-02-15T03:20:05.498Z,21.9
2018-02-15T03:22:05.282Z,21.9
2018-02-15T03:24:05.066Z,21.9
2018-02-15T03:26:05.371Z,21.9
2018-02-15T03:28:05.133Z,21.9
2018-02-15T03:30:04.922Z,21.9
2018-02-15T03:32:04.735Z,21.9
2018-02-15T03:34:05.617Z,21.9
2018-02-15T03:36:05.020Z,21.9
2018-02-15T03:38:04.791Z,21.9
2018-02-15T03:40:05.557Z,21.9
2018-02-15T03:42:05.271Z,21.9
2018-02-15T03:44:07.601Z,21.9
2018-02-15T03:46:04.888Z,21.9
2018-02-15T03:48:04.653Z,21.9
2018-02-15T03:50:05.459Z,21.9
2018-02-15T03:52:05.216Z,21.9
2018-02-15T03:54:04.946Z,21.8
2018-02-15T03:56:04.681Z,21.9
2018-02-15T03:58:05.465Z,21.8
2018-02-15T04:00:05.208Z,21.9
2018-02-15T04:02:04.995Z,21.9
2018-02-15T04:04:04.736Z,21.8
2018-02-15T04:06:05.261Z,21.8
2018-02-15T04:08:05.159Z,21.8
2018-02-15T04:10:05.167Z,21.8
2018-02-15T04:12:05.581Z,21.9
2018-02-15T04:14:07.401Z,21.8
2018-02-15T04:16:05.187Z,21.8
2018-02-15T04:18:05.176Z,21.8
2018-02-15T04:20:04.944Z,21.8
2018-02-15T04:22:07.735Z,21.8
2018-02-15T04:24:05.024Z,21.8
2018-02-15T04:26:09.970Z,21.8
2018-02-15T04:28:05.269Z,21.8
2018-02-15T04:30:05.030Z,21.8
2018-02-15T04:32:04.879Z,21.8
2018-02-15T04:34:13.208Z,21.8
2018-02-15T04:36:05.001Z,21.8
2018-02-15T04:38:07.851Z,21.8
2018-02-15T04:40:05.151Z,21.8
2018-02-15T04:42:12.476Z,21.8
2018-02-15T04:44:05.183Z,21.8
2018-02-15T04:46:04.913Z,21.8
2018-02-15T04:48:09.821Z,21.8
2018-02-15T04:50:05.593Z,21.8
2018-02-15T04:52:06.373Z,21.8
2018-02-15T04:54:05.183Z,21.8
2018-02-15T04:56:05.028Z,21.8
2018-02-15T04:58:12.399Z,21.8
2018-02-15T05:00:05.125Z,21.8
2018-02-15T05:02:04.866Z,21.8
2018-02-15T05:04:05.621Z,21.8
2018-02-15T05:06:05.406Z,21.8
2018-02-15T05:08:12.384Z,21.8
2018-02-15T05:10:05.137Z,21.8
2018-02-15T05:12:05.428Z,21.8
2018-02-15T05:14:05.188Z,21.8
2018-02-15T05:16:04.975Z,21.8
2018-02-15T05:18:05.549Z,21.8
2018-02-15T05:20:05.420Z,21.9
2018-02-15T05:22:05.275Z,21.9
2018-02-15T05:24:09.875Z,21.9
2018-02-15T05:26:04.661Z,21.9
2018-02-15T05:28:10.685Z,21.9
2018-02-15T05:30:05.813Z,21.9
2018-02-15T05:32:05.591Z,21.9
2018-02-15T05:34:07.468Z,21.9
2018-02-15T05:36:09.286Z,21.9
2018-02-15T05:38:08.570Z,21.9
2018-02-15T05:40:07.381Z,21.9
2018-02-15T05:42:05.317Z,21.9
2018-02-15T05:44:05.095Z,21.9
2018-02-15T05:46:07.426Z,21.9
2018-02-15T05:48:05.260Z,21.9
2018-02-15T05:50:10.057Z,21.9
2018-02-15T05:52:07.337Z,21.9
2018-02-15T05:54:07.620Z,22
2018-02-15T05:56:07.939Z,22
2018-02-15T05:58:04.651Z,21.9
2018-02-15T06:00:07.926Z,21.9
2018-02-15T06:02:04.676Z,22
2018-02-15T06:04:10.570Z,21.9
2018-02-15T06:06:05.494Z,21.9
2018-02-15T06:08:10.701Z,22
2018-02-15T06:10:10.617Z,21.9
2018-02-15T06:12:07.994Z,21.9
2018-02-15T06:14:04.863Z,22
2018-02-15T06:16:04.698Z,22
2018-02-15T06:18:09.739Z,22
2018-02-15T06:20:05.571Z,22
2018-02-15T06:22:05.429Z,22
2018-02-15T06:24:05.286Z,22
2018-02-15T06:26:05.120Z,22
2018-02-15T06:28:05.360Z,22
2018-02-15T06:30:05.470Z,22
2018-02-15T06:32:05.332Z,22
2018-02-15T06:34:05.184Z,22
2018-02-15T06:36:04.979Z,22
2018-02-15T06:38:04.806Z,22
2018-02-15T06:40:05.686Z,22
2018-02-15T06:42:08.109Z,22
2018-02-15T06:44:04.963Z,22
2018-02-15T06:46:07.311Z,22
2018-02-15T06:48:10.192Z,22
2018-02-15T06:50:05.015Z,22
2018-02-15T06:52:04.898Z,22
2018-02-15T06:54:07.301Z,22
2018-02-15T06:56:05.175Z,22
2018-02-15T06:58:04.989Z,22
2018-02-15T07:00:05.081Z,22
2018-02-15T07:02:07.434Z,22
2018-02-15T07:04:05.316Z,22
2018-02-15T07:06:05.407Z,22
2018-02-15T07:08:05.324Z,22
2018-02-15T07:10:12.781Z,21.9
2018-02-15T07:12:08.186Z,22
2018-02-15T07:14:05.046Z,21.9
2018-02-15T07:16:04.980Z,22
2018-02-15T07:18:05.088Z,22
2018-02-15T07:20:04.972Z,22
2018-02-15T07:22:04.919Z,22
2018-02-15T07:24:04.764Z,22
2018-02-15T07:26:05.638Z,22
2018-02-15T07:28:05.479Z,22
2018-02-15T07:30:05.557Z,22
2018-02-15T07:32:05.422Z,22
2018-02-15T07:34:06.374Z,22
2018-02-15T07:36:05.237Z,22
2018-02-15T07:38:05.065Z,22
2018-02-15T07:40:04.865Z,22
2018-02-15T07:42:04.701Z,22.1
2018-02-15T07:44:05.060Z,22
2018-02-15T07:46:05.523Z,22.1
2018-02-15T07:48:05.070Z,22
2018-02-15T07:50:07.509Z,22
2018-02-15T07:52:04.783Z,22
2018-02-15T07:54:05.241Z,22
2018-02-15T07:56:05.623Z,22
2018-02-15T07:58:07.962Z,22
2018-02-15T08:00:05.054Z,22
2018-02-15T08:02:04.938Z,22
2018-02-15T08:04:04.866Z,22
2018-02-15T08:06:07.328Z,22
2018-02-15T08:08:04.695Z,22
2018-02-15T08:10:10.901Z,22
2018-02-15T08:12:06.066Z,22
2018-02-15T08:14:07.920Z,22
2018-02-15T08:16:04.815Z,22
2018-02-15T08:18:07.943Z,22
2018-02-15T08:20:07.294Z,22
2018-02-15T08:22:10.200Z,22.1
2018-02-15T08:24:07.598Z,22
2018-02-15T08:26:05.468Z,22
2018-02-15T08:28:05.289Z,22.1
2018-02-15T08:30:05.197Z,22
2018-02-15T08:32:05.108Z,22
2018-02-15T08:34:04.927Z,22
2018-02-15T08:36:04.764Z,22
2018-02-15T08:38:05.533Z,22
2018-02-15T08:40:05.366Z,22
2018-02-15T08:42:04.707Z,22
2018-02-15T08:44:05.589Z,22
2018-02-15T08:46:05.425Z,22
2018-02-15T08:48:05.335Z,22
2018-02-15T08:50:05.179Z,22
2018-02-15T08:52:05.177Z,22
2018-02-15T08:54:05.294Z,22
2018-02-15T08:56:05.242Z,22
2018-02-15T08:58:10.474Z,22
2018-02-15T09:00:05.335Z,22
2018-02-15T09:02:05.195Z,22
2018-02-15T09:04:12.646Z,22
2018-02-15T09:06:05.029Z,22
2018-02-15T09:08:04.868Z,22
2018-02-15T09:10:07.220Z,22.2
2018-02-15T09:12:13.244Z,22.2
2018-02-15T09:14:10.189Z,22.2
2018-02-15T09:16:04.998Z,22.2
2018-02-15T09:18:05.055Z,22.2
2018-02-15T09:20:05.445Z,22.2
2018-02-15T09:22:05.291Z,22.2
2018-02-15T09:24:18.006Z,22
2018-02-15T09:26:04.870Z,22.1
2018-02-15T09:28:04.678Z,21.7
2018-02-15T09:30:05.594Z,21.4
2018-02-15T09:32:05.037Z,21.1
2018-02-15T09:34:04.869Z,20.9
2018-02-15T09:36:04.728Z,20.8
2018-02-15T09:38:08.156Z,20.7
2018-02-15T09:40:05.022Z,20.7
2018-02-15T09:42:07.391Z,20.5
2018-02-15T09:44:05.256Z,20.5
2018-02-15T09:46:05.118Z,20.5
2018-02-15T09:48:05.508Z,20.3
2018-02-15T09:50:05.361Z,20.3
2018-02-15T09:52:05.215Z,20.2
2018-02-15T09:54:08.525Z,20.1
2018-02-15T09:56:05.357Z,20.1
2018-02-15T09:58:10.298Z,19.9
2018-02-15T10:00:05.189Z,19.9
2018-02-15T10:02:05.577Z,19.8
2018-02-15T10:04:10.483Z,19.8
2018-02-15T10:06:07.890Z,19.7
2018-02-15T10:08:04.723Z,19.7
2018-02-15T10:10:08.082Z,19.6
2018-02-15T10:12:05.228Z,19.6
2018-02-15T10:14:05.051Z,19.6
2018-02-15T10:16:04.921Z,19.5
2018-02-15T10:18:07.497Z,19.4
2018-02-15T10:20:04.862Z,19.4
2018-02-15T10:22:04.795Z,19.4
2018-02-15T10:24:04.688Z,19.3
2018-02-15T10:26:05.544Z,19.3
2018-02-15T10:28:05.378Z,19.2
2018-02-15T10:30:04.741Z,19.2
2018-02-15T10:32:05.586Z,19.3
2018-02-15T10:34:05.492Z,19.5
2018-02-15T10:36:12.998Z,19.7
2018-02-15T10:38:07.404Z,19.8
2018-02-15T10:40:12.940Z,19.9
2018-02-15T10:42:05.042Z,19.9
2018-02-15T10:44:04.919Z,20
2018-02-15T10:46:04.837Z,20.1
2018-02-15T10:48:04.674Z,20.1
2018-02-15T10:50:05.595Z,20.2
2018-02-15T10:52:04.939Z,20.3
2018-02-15T10:54:07.390Z,20.4
2018-02-15T10:56:05.298Z,20.5
2018-02-15T10:58:05.299Z,20.5
2018-02-15T11:00:04.811Z,20.5
2018-02-15T11:02:07.835Z,20.6
2018-02-15T11:04:04.724Z,20.6
2018-02-15T11:06:05.654Z,20.6
2018-02-15T11:08:07.551Z,20.7
2018-02-15T11:10:05.499Z,20.7
2018-02-15T11:12:04.885Z,20.7
2018-02-15T11:14:05.231Z,20.7
2018-02-15T11:16:05.266Z,20.7
2018-02-15T11:18:10.454Z,20.8
2018-02-15T11:20:04.869Z,20.8
2018-02-15T11:22:04.798Z,20.8
2018-02-15T11:24:05.252Z,20.8
2018-02-15T11:26:05.157Z,20.8
2018-02-15T11:28:07.560Z,20.8
2018-02-15T11:30:05.440Z,20.8
2018-02-15T11:32:04.787Z,20.9
2018-02-15T11:34:05.137Z,20.9
2018-02-15T11:36:05.241Z,20.9
2018-02-15T11:38:05.226Z,20.9
2018-02-15T11:40:05.090Z,20.9
2018-02-15T11:42:10.000Z,20.9
2018-02-15T11:44:04.940Z,20.9
2018-02-15T11:46:04.877Z,21
2018-02-15T11:48:07.835Z,20.9
2018-02-15T11:50:07.432Z,21
2018-02-15T11:52:04.783Z,20.9
2018-02-15T11:54:05.811Z,20.9
2018-02-15T11:56:04.691Z,21
2018-02-15T11:58:05.022Z,20.9
2018-02-15T12:00:04.932Z,21
2018-02-15T12:02:04.789Z,21
2018-02-15T12:04:12.301Z,21
2018-02-15T12:06:05.414Z,21
2018-02-15T12:08:05.225Z,21
2018-02-15T12:10:05.184Z,21
2018-02-15T12:12:05.608Z,20.9
2018-02-15T12:14:05.522Z,21
2018-02-15T12:16:05.440Z,20.9
2018-02-15T12:18:05.555Z,21
2018-02-15T12:20:13.022Z,21
2018-02-15T12:22:07.328Z,20.9
2018-02-15T12:24:07.221Z,20.9
2018-02-15T12:26:05.132Z,20.9
2018-02-15T12:28:07.576Z,21
2018-02-15T12:30:05.427Z,20.9
2018-02-15T12:32:07.850Z,21
2018-02-15T12:34:07.260Z,21
2018-02-15T12:36:05.151Z,21
2018-02-15T12:38:07.506Z,21
2018-02-15T12:40:05.364Z,21
2018-02-15T12:42:05.210Z,21
2018-02-15T12:44:05.031Z,21
2018-02-15T12:46:04.929Z,21
2018-02-15T12:48:04.936Z,21.1
2018-02-15T12:50:04.802Z,21.1
2018-02-15T12:52:05.192Z,21.1
2018-02-15T12:54:05.217Z,21.1
2018-02-15T12:56:12.909Z,21.1
2018-02-15T12:58:04.763Z,21.1
2018-02-15T13:00:05.151Z,21.1
2018-02-15T13:02:05.000Z,21.1
2018-02-15T13:04:05.685Z,21.1
2018-02-15T13:06:05.586Z,21.1
2018-02-15T13:08:08.088Z,21.1
2018-02-15T13:10:05.534Z,21.2
2018-02-15T13:12:05.516Z,21.2
2018-02-15T13:14:05.353Z,21.2
2018-02-15T13:16:05.192Z,21.2
2018-02-15T13:18:05.260Z,21.2
2018-02-15T13:20:05.101Z,21.2
2018-02-15T13:22:04.955Z,21.2
2018-02-15T13:24:07.329Z,21.3
2018-02-15T13:26:07.707Z,21.2
2018-02-15T13:28:07.674Z,21.2
2018-02-15T13:30:05.784Z,21.2
2018-02-15T13:32:07.637Z,21.2
2018-02-15T13:34:07.571Z,21.2
2018-02-15T13:36:05.452Z,21.2
2018-02-15T13:38:05.325Z,21.2
2018-02-15T13:40:04.757Z,21.2
2018-02-15T13:42:05.644Z,21.2
2018-02-15T13:44:05.548Z,21.2
2018-02-15T13:46:05.442Z,21.1
2018-02-15T13:48:07.905Z,21.2
2018-02-15T13:50:07.244Z,21.2
2018-02-15T13:52:05.097Z,21.2
2018-02-15T13:54:04.980Z,21.2
2018-02-15T13:56:04.806Z,21.2
2018-02-15T13:58:05.764Z,21.2
2018-02-15T14:00:05.854Z,21.2
2018-02-15T14:02:04.795Z,21.2
2018-02-15T14:04:05.659Z,21.2
2018-02-15T14:06:05.017Z,21.2
2018-02-15T14:08:04.811Z,21.2
2018-02-15T14:10:05.669Z,21.2
2018-02-15T14:12:08.221Z,21.1
2018-02-15T14:14:05.198Z,21.1
2018-02-15T14:16:13.194Z,21.1
2018-02-15T14:18:05.236Z,21.2
2018-02-15T14:20:05.079Z,21.2
2018-02-15T14:22:07.646Z,21.2
2018-02-15T14:24:05.531Z,21.1
2018-02-15T14:26:12.501Z,21.2
2018-02-15T14:28:05.358Z,21.2
2018-02-15T14:30:15.428Z,21.2
2018-02-15T14:32:07.858Z,21.3
2018-02-15T14:34:04.742Z,21.3
2018-02-15T14:36:05.607Z,21.3
2018-02-15T14:38:05.463Z,21.3
2018-02-15T14:40:04.838Z,21.3
2018-02-15T14:42:04.673Z,21.3
2018-02-15T14:44:13.138Z,21.3
2018-02-15T14:46:05.019Z,21.3
2018-02-15T14:48:05.386Z,21.3
2018-02-15T14:50:05.558Z,21.3
2018-02-15T14:52:05.466Z,21.3
2018-02-15T14:54:07.824Z,21.4
2018-02-15T14:56:04.713Z,21.4
2018-02-15T14:58:05.570Z,21.4
2018-02-15T15:00:05.630Z,21.3
2018-02-15T15:02:05.459Z,21.4
2018-02-15T15:04:05.273Z,21.4
2018-02-15T15:06:05.382Z,21.3
2018-02-15T15:08:05.234Z,21.4
2018-02-15T15:10:05.102Z,21.4
2018-02-15T15:12:04.956Z,21.4
2018-02-15T15:14:04.752Z,21.4
2018-02-15T15:16:05.563Z,21.3
2018-02-15T15:18:05.171Z,21.4
2018-02-15T15:20:05.043Z,21.4
2018-02-15T15:22:04.854Z,21.4
2018-02-15T15:24:07.496Z,21.4
2018-02-15T15:26:05.316Z,21.4
2018-02-15T15:28:07.695Z,21.4
2018-02-15T15:30:05.726Z,21.4
2018-02-15T15:32:05.555Z,21.4
2018-02-15T15:34:07.496Z,21.4
2018-02-15T15:36:05.424Z,21.4
2018-02-15T15:38:05.300Z,21.4
2018-02-15T15:40:04.668Z,21.4
2018-02-15T15:42:05.529Z,21.4
2018-02-15T15:44:05.387Z,21.3
2018-02-15T15:46:05.240Z,21.4
2018-02-15T15:48:05.189Z,21.3
2018-02-15T15:50:05.531Z,21.3
2018-02-15T15:52:05.361Z,21.4
2018-02-15T15:54:04.764Z,21.3
2018-02-15T15:56:05.665Z,21.3
2018-02-15T15:58:05.516Z,21.3
2018-02-15T16:00:05.395Z,21.3
2018-02-15T16:02:05.377Z,21.3
2018-02-15T16:04:07.802Z,21.3
2018-02-15T16:06:12.240Z,21.2
2018-02-15T16:08:05.085Z,21.2
2018-02-15T16:10:05.013Z,21.2
2018-02-15T16:12:04.858Z,21.2
2018-02-15T16:14:07.188Z,21.2
2018-02-15T16:16:04.771Z,21.2
2018-02-15T16:18:04.993Z,21.2
2018-02-15T16:20:07.514Z,21.1
2018-02-15T16:22:05.356Z,21.1
2018-02-15T16:24:05.198Z,21.2
2018-02-15T16:26:05.049Z,21.1
2018-02-15T16:28:05.422Z,21.1
2018-02-15T16:30:05.522Z,21.1
2018-02-15T16:32:07.965Z,21.1
2018-02-15T16:34:07.299Z,21.2
2018-02-15T16:36:05.114Z,21.2
2018-02-15T16:38:10.014Z,21.2
2018-02-15T16:40:04.986Z,21.2
2018-02-15T16:42:07.420Z,21.2
2018-02-15T16:44:05.293Z,21.2
2018-02-15T16:46:08.183Z,21.3
2018-02-15T16:48:05.077Z,21.3
2018-02-15T16:50:04.979Z,21.3
2018-02-15T16:52:04.902Z,21.3
2018-02-15T16:54:05.063Z,21.3
2018-02-15T16:56:05.482Z,21.3
2018-02-15T16:58:05.383Z,21.3
2018-02-15T17:00:05.365Z,21.3
2018-02-15T17:02:10.318Z,21.3
2018-02-15T17:04:05.332Z,21.3
2018-02-15T17:06:05.171Z,21.3
2018-02-15T17:08:04.999Z,21.3
2018-02-15T17:10:05.581Z,21.3
2018-02-15T17:12:05.449Z,21.4
2018-02-15T17:14:04.765Z,21.4
2018-02-15T17:16:05.737Z,21.4
2018-02-15T17:18:09.910Z,21.6
2018-02-15T17:20:04.754Z,21.6
2018-02-15T17:22:05.649Z,21.7
2018-02-15T17:24:05.532Z,21.8
2018-02-15T17:26:05.365Z,21.9
2018-02-15T17:28:05.196Z,22
2018-02-15T17:30:13.161Z,22.1
2018-02-15T17:32:05.064Z,22
2018-02-15T17:34:04.891Z,22
2018-02-15T17:36:04.712Z,21.9
2018-02-15T17:38:08.028Z,21.9
2018-02-15T17:40:07.379Z,21.9
2018-02-15T17:42:07.443Z,21.8
2018-02-15T17:44:05.274Z,21.9
2018-02-15T17:46:05.642Z,21.8
2018-02-15T17:48:05.559Z,21.8
2018-02-15T17:50:05.374Z,21.8
2018-02-15T17:52:05.446Z,21.8
2018-02-15T17:54:05.265Z,21.8
2018-02-15T17:56:05.058Z,21.8
2018-02-15T17:58:04.904Z,21.8
2018-02-15T18:00:04.885Z,21.8
2018-02-15T18:02:05.234Z,21.8
2018-02-15T18:04:07.564Z,21.8
2018-02-15T18:06:05.227Z,21.8
2018-02-15T18:08:05.074Z,21.8
2018-02-15T18:10:05.081Z,21.8
2018-02-15T18:12:12.530Z,21.9
2018-02-15T18:14:10.618Z,21.9
2018-02-15T18:16:10.539Z,21.9
2018-02-15T18:18:05.692Z,21.9
2018-02-15T18:20:07.662Z,22
2018-02-15T18:22:05.531Z,22
2018-02-15T18:24:05.393Z,22.1
2018-02-15T18:26:05.497Z,22.2
2018-02-15T18:28:10.659Z,22.2
2018-02-15T18:30:05.487Z,22.2
2018-02-15T18:32:05.312Z,22.2
2018-02-15T18:34:10.208Z,22.3
2018-02-15T18:36:07.543Z,22.3
2018-02-15T18:38:05.399Z,22.3
2018-02-15T18:40:05.290Z,22.4
2018-02-15T18:42:05.156Z,22.4
2018-02-15T18:44:13.105Z,22.4
2018-02-15T18:46:13.118Z,22.4
2018-02-15T18:48:05.000Z,22.4
2018-02-15T18:50:05.554Z,22.4
2018-02-15T18:52:08.044Z,22.4
2018-02-15T18:54:04.854Z,22.4
2018-02-15T18:56:07.791Z,22.5
2018-02-15T18:58:05.229Z,22.4
2018-02-15T19:00:05.096Z,22.5
2018-02-15T19:02:07.454Z,22.5
2018-02-15T19:04:05.015Z,22.5
2018-02-15T19:06:04.982Z,22.6
2018-02-15T19:08:05.460Z,22.7
2018-02-15T19:10:05.355Z,22.8
2018-02-15T19:12:04.768Z,23
2018-02-15T19:14:08.150Z,23.1
2018-02-15T19:16:05.492Z,23.1
2018-02-15T19:18:05.724Z,23.2
2018-02-15T19:20:08.129Z,23.3
2018-02-15T19:22:04.950Z,23.3
2018-02-15T19:24:07.579Z,23.4
2018-02-15T19:26:05.604Z,23.4
2018-02-15T19:28:05.589Z,23.4
2018-02-15T19:30:05.560Z,23.4
2018-02-15T19:32:05.412Z,23.5
2018-02-15T19:34:05.242Z,23.5
2018-02-15T19:36:07.587Z,23.6
2018-02-15T19:38:05.497Z,23.6
2018-02-15T19:40:05.368Z,23.6
2018-02-15T19:42:05.243Z,23.7
2018-02-15T19:44:10.728Z,23.7
2018-02-15T19:46:08.430Z,23.8
2018-02-15T19:48:05.309Z,23.8
2018-02-15T19:50:04.715Z,23.8
2018-02-15T19:52:05.589Z,23.8
2018-02-15T19:54:07.460Z,23.9
2018-02-15T19:56:07.858Z,23.8
2018-02-15T19:58:07.787Z,23.6
2018-02-15T20:00:04.627Z,23.6
2018-02-15T20:02:05.448Z,23.5
2018-02-15T20:04:05.387Z,23.5
2018-02-15T20:06:05.292Z,23.4
2018-02-15T20:08:05.162Z,23.5
2018-02-15T20:10:05.050Z,23.5
2018-02-15T20:12:10.105Z,23.4
2018-02-15T20:14:06.010Z,23.4
2018-02-15T20:16:05.215Z,23.5
2018-02-15T20:18:05.496Z,23.4
2018-02-15T20:20:05.322Z,23.4
2018-02-15T20:22:05.393Z,23.4
2018-02-15T20:24:04.635Z,23.4
2018-02-15T20:26:05.003Z,23.4
2018-02-15T20:28:05.591Z,23.4
2018-02-15T20:34:04.846Z,23.4
2018-02-15T20:42:22.199Z,23.4
2018-02-15T20:46:04.714Z,23.3
2018-02-15T20:46:08.135Z,23.3
2018-02-15T20:49:30.031Z,23.4
2018-02-15T20:50:38.802Z,23.4
2018-02-15T20:52:45.357Z,23.3
2018-02-15T20:54:37.987Z,23.3
2018-02-15T20:56:16.074Z,23.3
2018-02-15T20:58:54.282Z,23.3
2018-02-15T21:01:33.201Z,23.3
2018-02-15T21:02:37.501Z,23.3
2018-02-15T21:04:33.991Z,23.3
2018-02-15T21:06:35.710Z,23.3
2018-02-15T21:08:16.307Z,23.3
2018-02-15T21:10:22.658Z,23.3
2018-02-15T21:12:48.527Z,23.3
2018-02-15T21:14:22.809Z,23.3
2018-02-15T21:16:26.876Z,23.3
2018-02-15T21:18:16.398Z,23.3
2018-02-15T21:20:16.206Z,23.2
2018-02-15T21:22:28.943Z,23.3
2018-02-15T21:24:28.395Z,23.2
2018-02-15T21:26:27.902Z,23.2
2018-02-15T21:29:12.737Z,23.2
2018-02-15T21:30:09.728Z,23.2
2018-02-15T21:32:13.450Z,23.2
2018-02-15T21:34:34.230Z,23.2
2018-02-15T21:36:15.529Z,23.2
2018-02-15T21:38:13.003Z,23.2
2018-02-15T21:40:08.473Z,23.2
2018-02-15T21:42:08.865Z,23.2
2018-02-15T21:45:08.397Z,23.2
2018-02-15T21:46:07.858Z,23.2
2018-02-15T21:48:36.007Z,23.2
2018-02-15T21:50:10.597Z,23.2
2018-02-15T21:52:27.229Z,23.2
2018-02-15T21:54:29.693Z,23.3
2018-02-15T21:58:18.388Z,23.2
2018-02-15T22:00:08.663Z,23.2
2018-02-15T22:02:22.665Z,23.2
2018-02-15T22:04:29.996Z,23.3
2018-02-15T22:06:41.181Z,23.2
2018-02-15T22:08:06.171Z,23.3
2018-02-15T22:10:11.403Z,23.3
2018-02-15T22:12:05.086Z,23.3
2018-02-15T22:14:05.082Z,23.3
2018-02-15T22:16:05.193Z,23.3
2018-02-15T22:18:06.326Z,23.3
2018-02-15T22:20:07.752Z,23.3
2018-02-15T22:22:05.041Z,23.2
2018-02-15T22:24:12.533Z,23.3
2018-02-15T22:26:04.866Z,23.3
2018-02-15T22:28:04.777Z,23.3
2018-02-15T22:30:05.671Z,23.3
2018-02-15T22:32:10.514Z,23.2
2018-02-15T22:34:04.777Z,23.3
2018-02-15T22:36:05.591Z,23.2
2018-02-15T22:38:05.614Z,23.2
2018-02-15T22:40:05.013Z,23.2
2018-02-15T22:42:05.027Z,23.2
2018-02-15T22:44:05.071Z,23.2
2018-02-15T22:46:05.101Z,23.2
2018-02-15T22:48:10.013Z,23.2
2018-02-15T22:50:04.763Z,23.2
2018-02-15T22:52:05.563Z,23.2
2018-02-15T22:54:05.629Z,23.2
2018-02-15T22:56:05.406Z,23.2
2018-02-15T22:58:05.151Z,23.2
2018-02-15T23:00:05.136Z,23.2
2018-02-15T23:02:04.919Z,23.2
2018-02-15T23:04:05.259Z,23.2
2018-02-15T23:06:05.382Z,23.2
2018-02-15T23:08:08.101Z,23.1
2018-02-15T23:10:05.108Z,23.1
2018-02-15T23:12:09.900Z,23.2
2018-02-15T23:14:04.633Z,23.2
2018-02-15T23:16:05.376Z,23.2
2018-02-15T23:18:05.329Z,23.2
2018-02-15T23:20:05.117Z,23.3
2018-02-15T23:22:04.890Z,23.2
2018-02-15T23:24:05.155Z,23.2
2018-02-15T23:26:05.014Z,23.2
2018-02-15T23:28:04.775Z,23.2
2018-02-15T23:30:08.072Z,23.2
2018-02-15T23:32:04.883Z,23.2
2018-02-15T23:34:05.273Z,23.2
2018-02-15T23:36:05.650Z,23.2
2018-02-15T23:38:05.474Z,23.2
2018-02-15T23:40:07.397Z,23.2
2018-02-15T23:42:05.147Z,23.2
2018-02-15T23:44:04.951Z,23.2
2018-02-15T23:46:04.751Z,23.2
2018-02-15T23:48:13.336Z,23.2
2018-02-15T23:50:07.651Z,23.2
2018-02-15T23:52:10.043Z,23.2
2018-02-15T23:54:04.919Z,23.2
2018-02-15T23:56:07.204Z,23.2
2018-02-15T23:58:07.457Z,23.2
